sensor_id;sensor_type;location;lat;lon;timestamp;temperature;humidity
20233;DHT22;37438;55.674;13.074;2022-12-18T00:02:21;-0.20;99.90
20233;DHT22;37438;55.674;13.074;2022-12-18T00:05:26;-0.20;99.90
20233;DHT22;37438;55.674;13.074;2022-12-18T00:08:30;-0.20;99.90
20233;DHT22;37438;55.674;13.074;2022-12-18T00:11:35;-0.20;99.90
20233;DHT22;37438;55.674;13.074;2022-12-18T00:14:40;-0.20;99.90
20233;DHT22;37438;55.674;13.074;2022-12-18T00:17:45;-0.20;99.90
20233;DHT22;37438;55.674;13.074;2022-12-18T00:20:49;-0.10;99.90
20233;DHT22;37438;55.674;13.074;2022-12-18T00:23:53;-0.30;99.90
20233;DHT22;37438;55.674;13.074;2022-12-18T00:26:58;-0.30;99.90
20233;DHT22;37438;55.674;13.074;2022-12-18T00:30:02;-0.30;99.90
20233;DHT22;37438;55.674;13.074;2022-12-18T00:33:07;-0.30;99.90
20233;DHT22;37438;55.674;13.074;2022-12-18T00:36:12;-0.30;99.90
20233;DHT22;37438;55.674;13.074;2022-12-18T00:39:17;-0.20;99.90
20233;DHT22;37438;55.674;13.074;2022-12-18T00:42:21;-0.20;99.90
20233;DHT22;37438;55.674;13.074;2022-12-18T00:45:45;-0.20;99.90
20233;DHT22;37438;55.674;13.074;2022-12-18T00:48:49;-0.30;99.90
20233;DHT22;37438;55.674;13.074;2022-12-18T00:51:56;-0.40;99.90
20233;DHT22;37438;55.674;13.074;2022-12-18T00:55:01;-0.20;99.90
20233;DHT22;37438;55.674;13.074;2022-12-18T00:58:10;-0.20;99.90
20233;DHT22;37438;55.674;13.074;2022-12-18T01:01:14;-0.20;99.90
20233;DHT22;37438;55.674;13.074;2022-12-18T01:04:19;-0.10;99.90
20233;DHT22;37438;55.674;13.074;2022-12-18T01:07:23;-0.10;99.90
20233;DHT22;37438;55.674;13.074;2022-12-18T01:10:27;0.20;99.90
20233;DHT22;37438;55.674;13.074;2022-12-18T01:13:34;0.20;99.90
20233;DHT22;37438;55.674;13.074;2022-12-18T01:16:38;0.20;99.90
20233;DHT22;37438;55.674;13.074;2022-12-18T01:19:43;0.10;99.90
20233;DHT22;37438;55.674;13.074;2022-12-18T01:22:47;0.10;99.90
20233;DHT22;37438;55.674;13.074;2022-12-18T01:25:52;0.00;99.90
20233;DHT22;37438;55.674;13.074;2022-12-18T01:28:56;0.00;99.90
20233;DHT22;37438;55.674;13.074;2022-12-18T01:32:01;0.00;99.90
20233;DHT22;37438;55.674;13.074;2022-12-18T01:35:06;0.00;99.90
20233;DHT22;37438;55.674;13.074;2022-12-18T01:38:11;0.00;99.90
20233;DHT22;37438;55.674;13.074;2022-12-18T01:41:16;0.00;99.90
20233;DHT22;37438;55.674;13.074;2022-12-18T01:47:51;-0.10;99.90
20233;DHT22;37438;55.674;13.074;2022-12-18T01:50:56;0.10;99.90
20233;DHT22;37438;55.674;13.074;2022-12-18T01:54:00;0.00;99.90
20233;DHT22;37438;55.674;13.074;2022-12-18T01:57:04;-0.10;99.90
20233;DHT22;37438;55.674;13.074;2022-12-18T02:00:14;-0.20;99.90
20233;DHT22;37438;55.674;13.074;2022-12-18T02:03:19;-0.20;99.90
20233;DHT22;37438;55.674;13.074;2022-12-18T02:06:27;-0.10;99.90
20233;DHT22;37438;55.674;13.074;2022-12-18T02:09:35;-0.20;99.90
20233;DHT22;37438;55.674;13.074;2022-12-18T02:19:00;-0.20;99.90
20233;DHT22;37438;55.674;13.074;2022-12-18T02:32:00;0.00;99.90
20233;DHT22;37438;55.674;13.074;2022-12-18T02:35:12;0.00;99.90
20233;DHT22;37438;55.674;13.074;2022-12-18T02:38:18;0.10;99.90
20233;DHT22;37438;55.674;13.074;2022-12-18T02:41:25;0.00;99.90
20233;DHT22;37438;55.674;13.074;2022-12-18T02:44:30;-0.10;99.90
20233;DHT22;37438;55.674;13.074;2022-12-18T02:47:39;0.00;99.90
20233;DHT22;37438;55.674;13.074;2022-12-18T02:50:47;0.00;99.90
20233;DHT22;37438;55.674;13.074;2022-12-18T02:53:56;0.00;99.90
20233;DHT22;37438;55.674;13.074;2022-12-18T02:57:24;0.20;99.90
20233;DHT22;37438;55.674;13.074;2022-12-18T03:00:32;0.10;99.90
20233;DHT22;37438;55.674;13.074;2022-12-18T03:03:41;0.10;99.90
20233;DHT22;37438;55.674;13.074;2022-12-18T03:06:50;0.20;99.90
20233;DHT22;37438;55.674;13.074;2022-12-18T03:09:56;0.10;99.90
20233;DHT22;37438;55.674;13.074;2022-12-18T03:13:10;0.10;99.90
20233;DHT22;37438;55.674;13.074;2022-12-18T03:16:18;0.20;99.90
20233;DHT22;37438;55.674;13.074;2022-12-18T03:19:24;0.20;99.90
20233;DHT22;37438;55.674;13.074;2022-12-18T03:22:33;0.30;99.90
20233;DHT22;37438;55.674;13.074;2022-12-18T03:25:40;0.30;99.90
20233;DHT22;37438;55.674;13.074;2022-12-18T03:28:46;0.30;99.90
20233;DHT22;37438;55.674;13.074;2022-12-18T03:31:56;0.30;99.90
20233;DHT22;37438;55.674;13.074;2022-12-18T03:35:03;0.40;99.90
20233;DHT22;37438;55.674;13.074;2022-12-18T03:38:12;0.40;99.90
20233;DHT22;37438;55.674;13.074;2022-12-18T03:45:09;0.40;99.90
20233;DHT22;37438;55.674;13.074;2022-12-18T03:48:17;0.40;99.90
20233;DHT22;37438;55.674;13.074;2022-12-18T03:54:41;0.40;99.90
20233;DHT22;37438;55.674;13.074;2022-12-18T03:57:50;0.40;99.90
20233;DHT22;37438;55.674;13.074;2022-12-18T04:00:56;0.40;99.90
20233;DHT22;37438;55.674;13.074;2022-12-18T04:04:03;0.30;99.90
20233;DHT22;37438;55.674;13.074;2022-12-18T04:07:12;0.30;99.90
20233;DHT22;37438;55.674;13.074;2022-12-18T04:10:20;0.40;99.90
20233;DHT22;37438;55.674;13.074;2022-12-18T04:13:27;0.30;99.90
20233;DHT22;37438;55.674;13.074;2022-12-18T04:16:33;0.40;99.90
20233;DHT22;37438;55.674;13.074;2022-12-18T04:19:40;0.50;99.90
20233;DHT22;37438;55.674;13.074;2022-12-18T04:22:45;0.50;99.90
20233;DHT22;37438;55.674;13.074;2022-12-18T04:25:50;0.50;99.90
20233;DHT22;37438;55.674;13.074;2022-12-18T04:29:07;0.50;99.90
20233;DHT22;37438;55.674;13.074;2022-12-18T04:32:12;0.50;99.90
20233;DHT22;37438;55.674;13.074;2022-12-18T04:35:19;0.50;99.90
20233;DHT22;37438;55.674;13.074;2022-12-18T04:38:24;0.50;99.90
20233;DHT22;37438;55.674;13.074;2022-12-18T04:41:37;0.50;99.90
20233;DHT22;37438;55.674;13.074;2022-12-18T04:44:41;0.50;99.90
20233;DHT22;37438;55.674;13.074;2022-12-18T04:47:46;0.50;99.90
20233;DHT22;37438;55.674;13.074;2022-12-18T04:50:50;0.50;99.90
20233;DHT22;37438;55.674;13.074;2022-12-18T04:53:54;0.50;99.90
20233;DHT22;37438;55.674;13.074;2022-12-18T04:56:58;0.50;99.90
20233;DHT22;37438;55.674;13.074;2022-12-18T05:00:03;0.40;99.90
20233;DHT22;37438;55.674;13.074;2022-12-18T05:03:08;0.40;99.90
20233;DHT22;37438;55.674;13.074;2022-12-18T05:06:12;0.40;99.90
20233;DHT22;37438;55.674;13.074;2022-12-18T05:09:16;0.40;99.90
20233;DHT22;37438;55.674;13.074;2022-12-18T05:12:22;0.30;99.90
20233;DHT22;37438;55.674;13.074;2022-12-18T05:15:27;0.40;99.90
20233;DHT22;37438;55.674;13.074;2022-12-18T05:18:32;0.30;99.90
20233;DHT22;37438;55.674;13.074;2022-12-18T05:21:36;0.30;99.90
20233;DHT22;37438;55.674;13.074;2022-12-18T05:24:41;0.50;99.90
20233;DHT22;37438;55.674;13.074;2022-12-18T05:27:46;0.40;99.90
20233;DHT22;37438;55.674;13.074;2022-12-18T05:30:57;0.50;99.90
20233;DHT22;37438;55.674;13.074;2022-12-18T05:34:01;0.50;99.90
20233;DHT22;37438;55.674;13.074;2022-12-18T05:37:05;0.40;99.90
20233;DHT22;37438;55.674;13.074;2022-12-18T05:40:09;0.50;99.90
20233;DHT22;37438;55.674;13.074;2022-12-18T05:43:14;0.50;99.90
20233;DHT22;37438;55.674;13.074;2022-12-18T05:46:24;0.40;99.90
20233;DHT22;37438;55.674;13.074;2022-12-18T05:49:29;0.50;99.90
20233;DHT22;37438;55.674;13.074;2022-12-18T05:52:33;0.50;99.90
20233;DHT22;37438;55.674;13.074;2022-12-18T05:55:38;0.40;99.90
20233;DHT22;37438;55.674;13.074;2022-12-18T05:58:42;0.40;99.90
20233;DHT22;37438;55.674;13.074;2022-12-18T06:01:47;0.40;99.90
20233;DHT22;37438;55.674;13.074;2022-12-18T06:04:52;0.40;99.90
20233;DHT22;37438;55.674;13.074;2022-12-18T06:07:56;0.40;99.90
20233;DHT22;37438;55.674;13.074;2022-12-18T06:11:00;0.40;99.90
20233;DHT22;37438;55.674;13.074;2022-12-18T06:14:05;0.50;99.90
20233;DHT22;37438;55.674;13.074;2022-12-18T06:17:09;0.40;99.90
20233;DHT22;37438;55.674;13.074;2022-12-18T06:20:14;0.30;99.90
20233;DHT22;37438;55.674;13.074;2022-12-18T06:23:19;0.40;99.90
20233;DHT22;37438;55.674;13.074;2022-12-18T06:26:23;0.40;99.90
20233;DHT22;37438;55.674;13.074;2022-12-18T06:29:31;0.40;99.90
20233;DHT22;37438;55.674;13.074;2022-12-18T06:32:35;0.40;99.90
20233;DHT22;37438;55.674;13.074;2022-12-18T06:35:39;0.40;99.90
20233;DHT22;37438;55.674;13.074;2022-12-18T06:38:44;0.30;99.90
20233;DHT22;37438;55.674;13.074;2022-12-18T06:41:48;0.30;99.90
20233;DHT22;37438;55.674;13.074;2022-12-18T06:44:52;0.20;99.90
20233;DHT22;37438;55.674;13.074;2022-12-18T06:47:56;0.30;99.90
20233;DHT22;37438;55.674;13.074;2022-12-18T06:51:02;0.40;99.90
20233;DHT22;37438;55.674;13.074;2022-12-18T06:54:06;0.40;99.90
20233;DHT22;37438;55.674;13.074;2022-12-18T06:57:10;0.40;99.90
20233;DHT22;37438;55.674;13.074;2022-12-18T07:00:15;0.30;99.90
20233;DHT22;37438;55.674;13.074;2022-12-18T07:03:20;0.40;99.90
20233;DHT22;37438;55.674;13.074;2022-12-18T07:06:25;0.40;99.90
20233;DHT22;37438;55.674;13.074;2022-12-18T07:09:29;0.50;99.90
20233;DHT22;37438;55.674;13.074;2022-12-18T07:12:34;0.50;99.90
20233;DHT22;37438;55.674;13.074;2022-12-18T07:15:38;0.50;99.90
20233;DHT22;37438;55.674;13.074;2022-12-18T07:18:43;0.50;99.90
20233;DHT22;37438;55.674;13.074;2022-12-18T07:21:47;0.50;99.90
20233;DHT22;37438;55.674;13.074;2022-12-18T07:24:51;0.50;99.90
20233;DHT22;37438;55.674;13.074;2022-12-18T07:27:56;0.50;99.90
20233;DHT22;37438;55.674;13.074;2022-12-18T07:31:07;0.50;99.90
20233;DHT22;37438;55.674;13.074;2022-12-18T07:34:12;0.50;99.90
20233;DHT22;37438;55.674;13.074;2022-12-18T07:37:16;0.50;99.90
20233;DHT22;37438;55.674;13.074;2022-12-18T07:40:21;0.60;99.90
20233;DHT22;37438;55.674;13.074;2022-12-18T07:43:24;0.60;99.90
20233;DHT22;37438;55.674;13.074;2022-12-18T07:46:28;0.60;99.90
20233;DHT22;37438;55.674;13.074;2022-12-18T07:49:33;0.70;99.90
20233;DHT22;37438;55.674;13.074;2022-12-18T07:52:37;0.80;99.90
20233;DHT22;37438;55.674;13.074;2022-12-18T07:55:41;0.80;99.90
20233;DHT22;37438;55.674;13.074;2022-12-18T07:59:05;0.90;99.90
20233;DHT22;37438;55.674;13.074;2022-12-18T08:02:09;0.90;99.90
20233;DHT22;37438;55.674;13.074;2022-12-18T08:05:15;0.90;99.90
20233;DHT22;37438;55.674;13.074;2022-12-18T08:08:19;1.00;99.90
20233;DHT22;37438;55.674;13.074;2022-12-18T08:11:24;1.10;99.90
20233;DHT22;37438;55.674;13.074;2022-12-18T08:14:28;1.10;99.90
20233;DHT22;37438;55.674;13.074;2022-12-18T08:17:32;1.10;99.90
20233;DHT22;37438;55.674;13.074;2022-12-18T08:20:37;1.20;99.90
20233;DHT22;37438;55.674;13.074;2022-12-18T08:23:41;1.30;99.90
20233;DHT22;37438;55.674;13.074;2022-12-18T08:26:47;1.30;99.90
20233;DHT22;37438;55.674;13.074;2022-12-18T08:30:11;1.40;99.90
20233;DHT22;37438;55.674;13.074;2022-12-18T08:33:16;1.40;99.90
20233;DHT22;37438;55.674;13.074;2022-12-18T08:36:21;1.60;99.90
20233;DHT22;37438;55.674;13.074;2022-12-18T08:39:26;1.80;99.90
20233;DHT22;37438;55.674;13.074;2022-12-18T08:42:30;1.90;99.90
20233;DHT22;37438;55.674;13.074;2022-12-18T08:45:53;2.00;99.90
20233;DHT22;37438;55.674;13.074;2022-12-18T08:48:57;2.10;99.90
20233;DHT22;37438;55.674;13.074;2022-12-18T08:52:02;2.30;99.90
20233;DHT22;37438;55.674;13.074;2022-12-18T08:55:07;2.60;99.90
20233;DHT22;37438;55.674;13.074;2022-12-18T08:58:12;2.60;99.90
20233;DHT22;37438;55.674;13.074;2022-12-18T09:01:16;2.50;99.90
20233;DHT22;37438;55.674;13.074;2022-12-18T09:04:20;2.50;99.90
20233;DHT22;37438;55.674;13.074;2022-12-18T09:07:25;2.70;99.90
20233;DHT22;37438;55.674;13.074;2022-12-18T09:10:30;2.60;99.90
20233;DHT22;37438;55.674;13.074;2022-12-18T09:13:34;2.70;99.90
20233;DHT22;37438;55.674;13.074;2022-12-18T09:16:38;2.80;99.90
20233;DHT22;37438;55.674;13.074;2022-12-18T09:19:43;3.00;99.90
20233;DHT22;37438;55.674;13.074;2022-12-18T09:22:48;3.20;99.90
20233;DHT22;37438;55.674;13.074;2022-12-18T09:25:58;3.20;99.90
20233;DHT22;37438;55.674;13.074;2022-12-18T09:29:03;3.10;99.90
20233;DHT22;37438;55.674;13.074;2022-12-18T09:32:07;3.20;99.90
20233;DHT22;37438;55.674;13.074;2022-12-18T09:35:11;3.20;99.90
20233;DHT22;37438;55.674;13.074;2022-12-18T09:38:17;3.20;99.90
20233;DHT22;37438;55.674;13.074;2022-12-18T09:44:39;2.30;99.90
20233;DHT22;37438;55.674;13.074;2022-12-18T09:47:48;2.10;99.90
20233;DHT22;37438;55.674;13.074;2022-12-18T09:50:57;2.00;99.90
20233;DHT22;37438;55.674;13.074;2022-12-18T09:54:04;1.90;99.90
20233;DHT22;37438;55.674;13.074;2022-12-18T09:57:13;1.70;99.90
20233;DHT22;37438;55.674;13.074;2022-12-18T10:00:20;1.70;99.90
20233;DHT22;37438;55.674;13.074;2022-12-18T10:03:25;1.60;99.90
20233;DHT22;37438;55.674;13.074;2022-12-18T10:06:39;1.60;99.90
20233;DHT22;37438;55.674;13.074;2022-12-18T10:10:10;1.60;99.90
20233;DHT22;37438;55.674;13.074;2022-12-18T10:16:17;1.60;99.90
20233;DHT22;37438;55.674;13.074;2022-12-18T10:28:54;1.40;99.90
20233;DHT22;37438;55.674;13.074;2022-12-18T10:32:09;1.50;99.90
20233;DHT22;37438;55.674;13.074;2022-12-18T10:35:18;1.50;99.90
20233;DHT22;37438;55.674;13.074;2022-12-18T10:38:30;1.40;99.90
20233;DHT22;37438;55.674;13.074;2022-12-18T10:41:35;1.20;99.90
20233;DHT22;37438;55.674;13.074;2022-12-18T10:44:40;1.20;99.90
20233;DHT22;37438;55.674;13.074;2022-12-18T10:47:45;1.20;99.90
20233;DHT22;37438;55.674;13.074;2022-12-18T10:50:50;1.30;99.90
20233;DHT22;37438;55.674;13.074;2022-12-18T10:54:20;1.60;99.90
20233;DHT22;37438;55.674;13.074;2022-12-18T10:57:29;1.70;99.90
20233;DHT22;37438;55.674;13.074;2022-12-18T11:00:34;1.70;99.90
20233;DHT22;37438;55.674;13.074;2022-12-18T11:03:47;1.90;99.90
20233;DHT22;37438;55.674;13.074;2022-12-18T11:07:06;2.00;99.90
20233;DHT22;37438;55.674;13.074;2022-12-18T11:10:15;2.20;99.90
20233;DHT22;37438;55.674;13.074;2022-12-18T11:13:20;2.70;99.90
20233;DHT22;37438;55.674;13.074;2022-12-18T11:16:26;3.10;99.90
20233;DHT22;37438;55.674;13.074;2022-12-18T11:22:37;2.70;99.90
20233;DHT22;37438;55.674;13.074;2022-12-18T11:25:42;2.50;99.90
20233;DHT22;37438;55.674;13.074;2022-12-18T11:29:08;2.40;99.90
20233;DHT22;37438;55.674;13.074;2022-12-18T11:35:46;2.40;99.90
20233;DHT22;37438;55.674;13.074;2022-12-18T11:38:52;2.80;99.90
20233;DHT22;37438;55.674;13.074;2022-12-18T11:42:04;3.00;99.90
20233;DHT22;37438;55.674;13.074;2022-12-18T11:48:24;3.10;99.90
20233;DHT22;37438;55.674;13.074;2022-12-18T11:51:45;2.80;99.90
20233;DHT22;37438;55.674;13.074;2022-12-18T11:54:52;2.70;99.90
20233;DHT22;37438;55.674;13.074;2022-12-18T11:58:44;2.50;99.90
20233;DHT22;37438;55.674;13.074;2022-12-18T12:05:00;2.40;99.90
20233;DHT22;37438;55.674;13.074;2022-12-18T12:08:22;2.20;99.90
20233;DHT22;37438;55.674;13.074;2022-12-18T12:18:07;2.00;99.90
20233;DHT22;37438;55.674;13.074;2022-12-18T12:24:45;2.00;99.90
20233;DHT22;37438;55.674;13.074;2022-12-18T12:31:52;2.40;99.90
20233;DHT22;37438;55.674;13.074;2022-12-18T12:38:14;2.40;99.90
20233;DHT22;37438;55.674;13.074;2022-12-18T12:41:21;2.70;99.90
20233;DHT22;37438;55.674;13.074;2022-12-18T12:44:48;2.60;99.90
20233;DHT22;37438;55.674;13.074;2022-12-18T12:48:00;2.50;99.90
20233;DHT22;37438;55.674;13.074;2022-12-18T12:54:23;2.20;99.90
20233;DHT22;37438;55.674;13.074;2022-12-18T12:57:35;1.90;99.90
20233;DHT22;37438;55.674;13.074;2022-12-18T13:00:43;1.80;99.90
20233;DHT22;37438;55.674;13.074;2022-12-18T13:03:53;1.60;99.90
20233;DHT22;37438;55.674;13.074;2022-12-18T13:13:24;1.40;99.90
20233;DHT22;37438;55.674;13.074;2022-12-18T13:16:28;1.20;99.90
20233;DHT22;37438;55.674;13.074;2022-12-18T13:19:33;1.10;99.90
20233;DHT22;37438;55.674;13.074;2022-12-18T13:22:47;1.10;99.90
20233;DHT22;37438;55.674;13.074;2022-12-18T13:25:52;1.10;99.90
20233;DHT22;37438;55.674;13.074;2022-12-18T13:28:57;1.10;99.90
20233;DHT22;37438;55.674;13.074;2022-12-18T13:32:01;1.10;99.90
20233;DHT22;37438;55.674;13.074;2022-12-18T13:41:31;1.60;99.90
20233;DHT22;37438;55.674;13.074;2022-12-18T13:44:35;1.50;99.90
20233;DHT22;37438;55.674;13.074;2022-12-18T13:47:43;1.30;99.90
20233;DHT22;37438;55.674;13.074;2022-12-18T13:50:52;1.00;99.90
20233;DHT22;37438;55.674;13.074;2022-12-18T13:53:58;1.00;99.90
20233;DHT22;37438;55.674;13.074;2022-12-18T13:57:03;0.90;99.90
20233;DHT22;37438;55.674;13.074;2022-12-18T14:00:24;0.80;99.90
20233;DHT22;37438;55.674;13.074;2022-12-18T14:03:29;0.80;99.90
20233;DHT22;37438;55.674;13.074;2022-12-18T14:06:35;0.80;99.90
20233;DHT22;37438;55.674;13.074;2022-12-18T14:09:40;0.70;99.90
20233;DHT22;37438;55.674;13.074;2022-12-18T14:12:49;0.70;99.90
20233;DHT22;37438;55.674;13.074;2022-12-18T14:16:06;0.70;99.90
20233;DHT22;37438;55.674;13.074;2022-12-18T14:19:12;0.60;99.90
20233;DHT22;37438;55.674;13.074;2022-12-18T14:22:23;0.60;99.90
20233;DHT22;37438;55.674;13.074;2022-12-18T14:25:34;0.50;99.90
20233;DHT22;37438;55.674;13.074;2022-12-18T14:28:43;0.50;99.90
20233;DHT22;37438;55.674;13.074;2022-12-18T14:32:03;0.40;99.90
20233;DHT22;37438;55.674;13.074;2022-12-18T14:35:12;0.30;99.90
20233;DHT22;37438;55.674;13.074;2022-12-18T14:41:27;0.20;99.90
20233;DHT22;37438;55.674;13.074;2022-12-18T14:44:32;0.20;99.90
20233;DHT22;37438;55.674;13.074;2022-12-18T14:47:53;0.20;99.90
20233;DHT22;37438;55.674;13.074;2022-12-18T14:51:02;0.10;99.90
20233;DHT22;37438;55.674;13.074;2022-12-18T14:54:14;0.00;99.90
20233;DHT22;37438;55.674;13.074;2022-12-18T14:57:29;-0.20;99.90
20233;DHT22;37438;55.674;13.074;2022-12-18T15:00:34;-0.30;99.90
20233;DHT22;37438;55.674;13.074;2022-12-18T15:03:44;-0.40;99.90
20233;DHT22;37438;55.674;13.074;2022-12-18T15:06:50;-0.40;99.90
20233;DHT22;37438;55.674;13.074;2022-12-18T15:13:20;-0.50;99.90
20233;DHT22;37438;55.674;13.074;2022-12-18T15:16:25;-0.50;99.90
20233;DHT22;37438;55.674;13.074;2022-12-18T15:19:34;-0.40;99.90
20233;DHT22;37438;55.674;13.074;2022-12-18T15:22:39;-0.50;99.90
20233;DHT22;37438;55.674;13.074;2022-12-18T15:25:43;-0.50;99.90
20233;DHT22;37438;55.674;13.074;2022-12-18T15:32:04;-0.50;99.90
20233;DHT22;37438;55.674;13.074;2022-12-18T15:38:12;-0.50;99.90
20233;DHT22;37438;55.674;13.074;2022-12-18T15:41:18;-0.50;99.90
20233;DHT22;37438;55.674;13.074;2022-12-18T15:44:27;-0.50;99.90
20233;DHT22;37438;55.674;13.074;2022-12-18T15:47:32;-0.50;99.90
20233;DHT22;37438;55.674;13.074;2022-12-18T15:50:37;-0.40;99.90
20233;DHT22;37438;55.674;13.074;2022-12-18T15:53:41;-0.60;99.90
20233;DHT22;37438;55.674;13.074;2022-12-18T15:56:47;-0.60;99.90
20233;DHT22;37438;55.674;13.074;2022-12-18T16:00:11;-0.60;99.90
20233;DHT22;37438;55.674;13.074;2022-12-18T16:03:16;-0.70;99.90
20233;DHT22;37438;55.674;13.074;2022-12-18T16:06:22;-0.70;99.90
20233;DHT22;37438;55.674;13.074;2022-12-18T16:09:26;-0.80;99.90
20233;DHT22;37438;55.674;13.074;2022-12-18T16:12:31;-0.90;99.90
20233;DHT22;37438;55.674;13.074;2022-12-18T16:15:35;-0.80;99.90
20233;DHT22;37438;55.674;13.074;2022-12-18T16:18:40;-0.90;99.90
20233;DHT22;37438;55.674;13.074;2022-12-18T16:21:45;-0.90;99.90
20233;DHT22;37438;55.674;13.074;2022-12-18T16:24:50;-1.00;99.90
20233;DHT22;37438;55.674;13.074;2022-12-18T16:27:55;-1.00;99.90
20233;DHT22;37438;55.674;13.074;2022-12-18T16:31:00;-1.10;99.90
20233;DHT22;37438;55.674;13.074;2022-12-18T16:34:20;-1.10;99.90
20233;DHT22;37438;55.674;13.074;2022-12-18T16:37:29;-0.90;99.90
20233;DHT22;37438;55.674;13.074;2022-12-18T16:40:33;-0.90;99.90
20233;DHT22;37438;55.674;13.074;2022-12-18T16:43:59;-0.90;99.90
20233;DHT22;37438;55.674;13.074;2022-12-18T16:47:03;-1.20;99.90
20233;DHT22;37438;55.674;13.074;2022-12-18T16:50:09;-1.10;99.90
20233;DHT22;37438;55.674;13.074;2022-12-18T16:53:14;-1.20;99.90
20233;DHT22;37438;55.674;13.074;2022-12-18T16:56:19;-1.10;99.90
20233;DHT22;37438;55.674;13.074;2022-12-18T16:59:23;-1.00;99.90
20233;DHT22;37438;55.674;13.074;2022-12-18T17:02:29;-1.00;99.90
20233;DHT22;37438;55.674;13.074;2022-12-18T17:05:34;-1.00;99.90
20233;DHT22;37438;55.674;13.074;2022-12-18T17:08:38;-1.00;99.90
20233;DHT22;37438;55.674;13.074;2022-12-18T17:11:43;-1.00;99.90
20233;DHT22;37438;55.674;13.074;2022-12-18T17:14:47;-1.00;99.90
20233;DHT22;37438;55.674;13.074;2022-12-18T17:17:51;-0.90;99.90
20233;DHT22;37438;55.674;13.074;2022-12-18T17:20:59;-1.00;99.90
20233;DHT22;37438;55.674;13.074;2022-12-18T17:24:04;-1.00;99.90
20233;DHT22;37438;55.674;13.074;2022-12-18T17:27:09;-1.10;99.90
20233;DHT22;37438;55.674;13.074;2022-12-18T17:30:13;-1.00;99.90
20233;DHT22;37438;55.674;13.074;2022-12-18T17:33:17;-0.90;99.90
20233;DHT22;37438;55.674;13.074;2022-12-18T17:36:22;-0.90;99.90
20233;DHT22;37438;55.674;13.074;2022-12-18T17:39:26;-0.90;99.90
20233;DHT22;37438;55.674;13.074;2022-12-18T17:42:31;-0.80;99.90
20233;DHT22;37438;55.674;13.074;2022-12-18T17:45:39;-0.90;99.90
20233;DHT22;37438;55.674;13.074;2022-12-18T17:48:43;-0.90;99.90
20233;DHT22;37438;55.674;13.074;2022-12-18T17:51:47;-1.00;99.90
20233;DHT22;37438;55.674;13.074;2022-12-18T17:54:51;-0.90;99.90
20233;DHT22;37438;55.674;13.074;2022-12-18T17:57:56;-0.90;99.90
20233;DHT22;37438;55.674;13.074;2022-12-18T18:01:00;-0.90;99.90
20233;DHT22;37438;55.674;13.074;2022-12-18T18:04:04;-0.90;99.90
20233;DHT22;37438;55.674;13.074;2022-12-18T18:07:10;-1.00;99.90
20233;DHT22;37438;55.674;13.074;2022-12-18T18:10:14;-1.00;99.90
20233;DHT22;37438;55.674;13.074;2022-12-18T18:13:20;-1.00;99.90
20233;DHT22;37438;55.674;13.074;2022-12-18T18:16:50;-1.00;99.90
20233;DHT22;37438;55.674;13.074;2022-12-18T18:19:55;-1.00;99.90
20233;DHT22;37438;55.674;13.074;2022-12-18T18:22:59;-1.00;99.90
20233;DHT22;37438;55.674;13.074;2022-12-18T18:26:04;-1.00;99.90
20233;DHT22;37438;55.674;13.074;2022-12-18T18:29:11;-1.00;99.90
20233;DHT22;37438;55.674;13.074;2022-12-18T18:32:17;-1.10;99.90
20233;DHT22;37438;55.674;13.074;2022-12-18T18:35:21;-1.10;99.90
20233;DHT22;37438;55.674;13.074;2022-12-18T18:38:46;-1.10;99.90
20233;DHT22;37438;55.674;13.074;2022-12-18T18:41:51;-1.20;99.90
20233;DHT22;37438;55.674;13.074;2022-12-18T18:44:56;-1.20;99.90
20233;DHT22;37438;55.674;13.074;2022-12-18T18:48:01;-1.20;99.90
20233;DHT22;37438;55.674;13.074;2022-12-18T18:51:10;-1.30;99.90
20233;DHT22;37438;55.674;13.074;2022-12-18T18:54:17;-1.30;99.90
20233;DHT22;37438;55.674;13.074;2022-12-18T18:57:22;-1.40;99.90
20233;DHT22;37438;55.674;13.074;2022-12-18T19:00:33;-1.40;99.90
20233;DHT22;37438;55.674;13.074;2022-12-18T19:03:38;-1.40;99.90
20233;DHT22;37438;55.674;13.074;2022-12-18T19:06:43;-1.40;99.90
20233;DHT22;37438;55.674;13.074;2022-12-18T19:09:51;-1.50;99.90
20233;DHT22;37438;55.674;13.074;2022-12-18T19:12:57;-1.70;99.90
20233;DHT22;37438;55.674;13.074;2022-12-18T19:16:20;-1.80;99.90
20233;DHT22;37438;55.674;13.074;2022-12-18T19:19:26;-1.90;99.90
20233;DHT22;37438;55.674;13.074;2022-12-18T19:22:31;-2.00;99.90
20233;DHT22;37438;55.674;13.074;2022-12-18T19:25:36;-1.90;99.90
20233;DHT22;37438;55.674;13.074;2022-12-18T19:28:45;-1.90;99.90
20233;DHT22;37438;55.674;13.074;2022-12-18T19:31:49;-1.90;99.90
20233;DHT22;37438;55.674;13.074;2022-12-18T19:34:54;-1.90;99.90
20233;DHT22;37438;55.674;13.074;2022-12-18T19:37:59;-1.90;99.90
20233;DHT22;37438;55.674;13.074;2022-12-18T19:41:05;-2.00;99.90
20233;DHT22;37438;55.674;13.074;2022-12-18T19:44:13;-2.10;99.90
20233;DHT22;37438;55.674;13.074;2022-12-18T19:47:18;-2.00;99.90
20233;DHT22;37438;55.674;13.074;2022-12-18T19:50:22;-2.00;99.90
20233;DHT22;37438;55.674;13.074;2022-12-18T19:53:27;-2.10;99.90
20233;DHT22;37438;55.674;13.074;2022-12-18T19:56:33;-2.00;99.90
20233;DHT22;37438;55.674;13.074;2022-12-18T19:59:37;-2.10;99.90
20233;DHT22;37438;55.674;13.074;2022-12-18T20:02:42;-2.20;99.90
20233;DHT22;37438;55.674;13.074;2022-12-18T20:05:46;-2.20;99.90
20233;DHT22;37438;55.674;13.074;2022-12-18T20:08:50;-2.20;99.90
20233;DHT22;37438;55.674;13.074;2022-12-18T20:11:56;-2.20;99.90
20233;DHT22;37438;55.674;13.074;2022-12-18T20:15:01;-2.20;99.90
20233;DHT22;37438;55.674;13.074;2022-12-18T20:18:07;-2.10;99.90
20233;DHT22;37438;55.674;13.074;2022-12-18T20:21:11;-2.10;99.90
20233;DHT22;37438;55.674;13.074;2022-12-18T20:24:17;-2.10;99.90
20233;DHT22;37438;55.674;13.074;2022-12-18T20:27:21;-2.10;99.90
20233;DHT22;37438;55.674;13.074;2022-12-18T20:30:27;-2.10;99.90
20233;DHT22;37438;55.674;13.074;2022-12-18T20:33:31;-1.90;99.90
20233;DHT22;37438;55.674;13.074;2022-12-18T20:36:35;-2.00;99.90
20233;DHT22;37438;55.674;13.074;2022-12-18T20:39:41;-2.00;99.90
20233;DHT22;37438;55.674;13.074;2022-12-18T20:42:46;-2.00;99.90
20233;DHT22;37438;55.674;13.074;2022-12-18T20:45:50;-1.90;99.90
20233;DHT22;37438;55.674;13.074;2022-12-18T20:48:55;-1.80;99.90
20233;DHT22;37438;55.674;13.074;2022-12-18T20:51:59;-1.90;99.90
20233;DHT22;37438;55.674;13.074;2022-12-18T20:55:06;-1.80;99.90
20233;DHT22;37438;55.674;13.074;2022-12-18T20:58:10;-1.80;99.90
20233;DHT22;37438;55.674;13.074;2022-12-18T21:01:15;-1.70;99.90
20233;DHT22;37438;55.674;13.074;2022-12-18T21:04:20;-1.70;99.90
20233;DHT22;37438;55.674;13.074;2022-12-18T21:07:25;-1.60;99.90
20233;DHT22;37438;55.674;13.074;2022-12-18T21:10:30;-1.80;99.90
20233;DHT22;37438;55.674;13.074;2022-12-18T21:13:35;-1.80;99.90
20233;DHT22;37438;55.674;13.074;2022-12-18T21:16:40;-1.80;99.90